Pinedale, WY

10:15 PM MDT on July 24, 2014 (GMT -0600)
Wenz (KPNA) Elev 7087 ft | 42.80 °N, 109.81 °W | Change Station

Current weather conditions updated 20 minutes ago

Clear
Clear
55 °F
Feels Like 55 °F
N
0
Wind Variable Wind from North

Tomorrow is forecast to be nearly the same temperature as today.

Today
High -- | Low -- °F
--% Chance of Precip.
Yesterday
High -- | Low -- °F
Precip. -- in
6:02 AM 8:48 PM
Waning Crescent, 3% visible
Pressure 30.24 in
Visibility 10.0 miles
Clouds Clear
Dew Point 37 °F
Humidity 51%
Rainfall 0.00 in
Snow Depth Not available.
UV 0 out of 12
Pollen 7.30 out of 12
Air Quality Not available.
Flu Activity Not available.
METAR KPNA 250355Z AUTO 00000KT 10SM CLR 13/03 A3024 RMK AO2

More Conditions Fewer Conditions

Pressure 30.24 in
Visibility 10.0 miles
Clouds Clear
Dew Point 37 °F
Humidity 51%
Rainfall 0.00 in
Snow Depth Not available.
UV 0 out of 12
Pollen 7.30 out of 12
Air Quality Not available.
Flu Activity Not available.
METAR KPNA 250355Z AUTO 00000KT 10SM CLR 13/03 A3024 RMK AO2

More Conditions Fewer Conditions

10-Day Weather Forecast

Almanac

Astronomy

Jul. 24, 2014 Rise Set
Actual Time 6:02 AM MDT 8:48 PM MDT
Civil Twilight 5:29 AM MDT 9:21 PM MDT
Nautical Twilight 4:48 AM MDT 10:02 PM MDT
Astronomical Twilight 4:00 AM MDT 10:50 PM MDT
Moon 4:13 AM MDT (7/24) 7:05 PM MDT (7/24)
Length of Visible Light 15h 51m
Length of Day
14h 45m
Tomorrow will be 1m 57s shorter.
Waning Crescent, 3% of the Moon is Illuminated
Jul 25
Waning Crescent
Jul 26
New
Aug 3
First Quarter
Aug 10
Full
Aug 17
Last Quarter

Today's Extremes

State Highs State Lows

Community

WunderPhotos

Upload Photos

1,737,242 photos uploaded!

Nearby

Snow Depth

Station Depth Elevation
Big Sandy Opening 1 in 9080 ft
Loomis Park 0 in 8240 ft
Kendall R.S. 0 in 7740 ft
Gunsight Pass 0 in 9820 ft
Blind Bull Summit 1 in 8900 ft

Earthquake Activity

City Distance Mag. Time & Date
No recent earthquake activity has been reported nearby.
Minimum magnitude displayed is 2.5.

Coastal Water Temperatures

Place Temperature
No Stations Reporting

Nearby Weather Stations

Station Location Temp. Dew Point Humidity Wind Precip. Elev Updated Type
HADS PINEDALE 1 NE WY, Pinedale, WY 65 °F - - North  at  - 0.00 in / hr 7310 ft 9:00 PM MDT MADIS
HADS BOULDER LAKE NEAR PINEDALE 13E WY, Boulder, WY 72 °F - - North  at  - 0.00 in / hr 7350 ft 9:00 PM MDT MADIS
APRSWXNET Daniel WY , Daniel, WY 62 °F 36 °F 38% West  at  2 mph 0.00 in / hr 7461 ft 9:33 PM MDT MADIS
Marbleton, WY 63.9 °F 1 °F 8% SW  at  3.0 mph 0.00 in / hr 6896 ft 10:15 PM MDT Rapid Fire
Little Piney Subdivision, Big Piney, WY 54.5 °F 30 °F 39% WNW  at  3.0 mph 0.00 in / hr 7044 ft 10:15 PM MDT Normal
RAWS HALF MOON WY, Pinedale, WY 62 °F 27 °F 26% WNW  at  9 mph 0.00 in / hr 8529 ft 9:26 PM MDT MADIS

Show More Stations Show Fewer Stations